createdAt,value
2022-11-30T00:01:12.458Z,101248.00
2022-11-30T00:03:47.432Z,101251.80
2022-11-30T00:06:23.513Z,101251.80
2022-11-30T00:08:59.602Z,101249.80
2022-11-30T00:11:33.991Z,101255.40
2022-11-30T00:14:07.836Z,101262.20
2022-11-30T00:16:41.881Z,101259.80
2022-11-30T00:19:15.935Z,101257.40
2022-11-30T00:21:50.148Z,101262.60
2022-11-30T00:24:24.140Z,101264.80
2022-11-30T00:26:57.683Z,101264.20
2022-11-30T00:29:31.561Z,101269.20
2022-11-30T00:32:05.157Z,101272.00
2022-11-30T00:34:39.111Z,101276.20
2022-11-30T00:37:13.001Z,101274.80
2022-11-30T00:39:46.633Z,101272.80
2022-11-30T00:42:20.478Z,101276.20
2022-11-30T00:44:54.271Z,101283.60
2022-11-30T00:47:28.195Z,101282.20
2022-11-30T00:50:01.789Z,101278.60
2022-11-30T00:52:35.498Z,101281.40
2022-11-30T00:55:11.945Z,101282.00
2022-11-30T00:57:45.518Z,101279.60
2022-11-30T01:00:21.445Z,101282.80
2022-11-30T01:02:59.360Z,101284.60
2022-11-30T01:05:35.332Z,101282.20
2022-11-30T01:08:12.560Z,101281.80
2022-11-30T01:10:49.517Z,101278.20
2022-11-30T01:13:23.072Z,101280.60
2022-11-30T01:15:57.003Z,101282.80
2022-11-30T01:18:30.725Z,101288.20
2022-11-30T01:21:08.729Z,101286.20
2022-11-30T01:23:42.772Z,101290.40
2022-11-30T01:26:17.134Z,101284.00
2022-11-30T01:28:55.279Z,101283.40
2022-11-30T01:31:29.132Z,101290.20
2022-11-30T01:34:02.925Z,101292.60
2022-11-30T01:36:38.954Z,101290.80
2022-11-30T01:39:13.072Z,101295.60
2022-11-30T01:41:46.878Z,101295.60
2022-11-30T01:44:54.667Z,101294.00
2022-11-30T01:47:34.327Z,101303.60
2022-11-30T01:50:16.429Z,101300.00
2022-11-30T01:52:55.037Z,101299.80
2022-11-30T01:55:33.896Z,101301.60
2022-11-30T01:58:12.652Z,101307.60
2022-11-30T02:00:49.831Z,101308.60
2022-11-30T02:03:33.841Z,101308.60
2022-11-30T02:06:08.849Z,101305.00
2022-11-30T02:08:42.851Z,101307.20
2022-11-30T02:11:19.050Z,101305.80
2022-11-30T02:14:21.580Z,101306.80
2022-11-30T02:17:08.533Z,101311.00
2022-11-30T02:20:17.630Z,101304.40
2022-11-30T02:23:19.404Z,101305.20
2022-11-30T02:26:07.292Z,101305.00
2022-11-30T02:29:10.463Z,101304.20
2022-11-30T02:31:52.666Z,101300.00
2022-11-30T02:34:32.298Z,101298.20
2022-11-30T02:37:09.036Z,101294.00
2022-11-30T02:39:43.584Z,101301.60
2022-11-30T02:42:18.574Z,101292.80
2022-11-30T02:44:55.710Z,101300.40
2022-11-30T02:47:38.133Z,101303.00
2022-11-30T02:50:19.971Z,101305.20
2022-11-30T02:52:54.926Z,101302.80
2022-11-30T02:55:32.241Z,101307.20
2022-11-30T02:58:06.675Z,101312.00
2022-11-30T03:00:40.546Z,101313.60
2022-11-30T03:03:14.242Z,101314.80
2022-11-30T03:05:47.836Z,101313.20
2022-11-30T03:08:21.532Z,101310.20
2022-11-30T03:10:55.284Z,101324.80
2022-11-30T03:13:29.345Z,101313.40
2022-11-30T03:16:09.089Z,101322.80
2022-11-30T03:18:43.739Z,101326.00
2022-11-30T03:21:17.890Z,101326.00
2022-11-30T03:23:51.671Z,101330.60
2022-11-30T03:26:25.344Z,101330.40
2022-11-30T03:28:59.042Z,101330.00
2022-11-30T03:31:33.543Z,101332.80
2022-11-30T03:34:07.413Z,101339.20
2022-11-30T03:36:41.301Z,101347.40
2022-11-30T03:39:15.206Z,101346.00
2022-11-30T03:41:48.938Z,101348.40
2022-11-30T03:44:23.021Z,101352.80
2022-11-30T03:46:57.134Z,101357.00
2022-11-30T03:49:30.821Z,101357.60
2022-11-30T03:52:04.633Z,101361.20
2022-11-30T03:54:38.781Z,101361.00
2022-11-30T03:57:12.494Z,101357.40
2022-11-30T03:59:46.230Z,101351.00
2022-11-30T04:02:19.976Z,101355.60
2022-11-30T04:04:53.676Z,101356.60
2022-11-30T04:07:27.439Z,101351.80
2022-11-30T04:10:06.840Z,101356.00
2022-11-30T04:12:42.584Z,101361.20
2022-11-30T04:15:17.174Z,101370.40
2022-11-30T04:17:51.003Z,101371.80
2022-11-30T04:20:25.742Z,101372.40
2022-11-30T04:23:01.527Z,101378.20
2022-11-30T04:25:35.150Z,101375.60
2022-11-30T04:28:08.936Z,101380.20
2022-11-30T04:30:43.112Z,101384.60
2022-11-30T04:33:18.153Z,101391.00
2022-11-30T04:35:55.910Z,101385.80
2022-11-30T04:38:30.777Z,101383.20
2022-11-30T04:41:09.801Z,101384.20
2022-11-30T04:43:43.481Z,101383.20
2022-11-30T04:46:17.275Z,101379.80
2022-11-30T04:48:50.905Z,101383.80
2022-11-30T04:51:24.543Z,101383.20
2022-11-30T04:53:58.370Z,101379.80
2022-11-30T04:56:32.117Z,101386.00
2022-11-30T04:59:07.188Z,101384.20
2022-11-30T05:01:40.796Z,101381.20
2022-11-30T05:04:14.768Z,101380.60
2022-11-30T05:06:48.444Z,101383.00
2022-11-30T05:09:22.194Z,101383.80
2022-11-30T05:11:55.948Z,101387.00
2022-11-30T05:14:29.761Z,101389.40
2022-11-30T05:17:03.411Z,101391.80
2022-11-30T05:19:37.172Z,101386.20
2022-11-30T05:22:10.834Z,101387.20
2022-11-30T05:24:44.677Z,101396.80
2022-11-30T05:27:22.566Z,101391.40
2022-11-30T05:29:56.881Z,101391.40
2022-11-30T05:32:30.530Z,101397.20
2022-11-30T05:35:04.684Z,101399.60
2022-11-30T05:37:38.515Z,101402.40
2022-11-30T05:40:15.126Z,101405.60
2022-11-30T05:42:48.877Z,101414.00
2022-11-30T05:45:22.765Z,101415.80
2022-11-30T05:47:56.636Z,101417.60
2022-11-30T05:50:30.371Z,101416.80
2022-11-30T05:53:03.990Z,101410.60
2022-11-30T05:55:37.990Z,101411.60
2022-11-30T05:58:12.143Z,101410.00
2022-11-30T06:00:46.328Z,101414.60
2022-11-30T06:03:20.173Z,101419.40
2022-11-30T06:05:55.937Z,101415.00
2022-11-30T06:08:30.119Z,101413.80
2022-11-30T06:11:06.186Z,101412.80
2022-11-30T06:13:40.467Z,101420.00
2022-11-30T06:16:14.431Z,101414.80
2022-11-30T06:18:48.775Z,101419.60
2022-11-30T06:21:24.854Z,101416.20
2022-11-30T06:23:58.786Z,101415.20
2022-11-30T06:26:32.542Z,101424.00
2022-11-30T06:29:06.286Z,101420.80
2022-11-30T06:31:40.116Z,101424.60
2022-11-30T06:34:13.768Z,101432.00
2022-11-30T06:36:47.566Z,101432.60
2022-11-30T06:39:42.997Z,101439.20
2022-11-30T06:42:15.162Z,101442.20
2022-11-30T06:44:49.772Z,101454.40
2022-11-30T06:47:24.146Z,101449.00
2022-11-30T06:49:58.361Z,101449.40
2022-11-30T06:52:35.039Z,101451.40
2022-11-30T06:55:12.131Z,101449.60
2022-11-30T06:57:45.922Z,101451.80
2022-11-30T07:00:22.145Z,101452.40
2022-11-30T07:02:55.987Z,101454.20
2022-11-30T07:05:31.145Z,101447.20
2022-11-30T07:08:05.361Z,101447.80
2022-11-30T07:10:44.263Z,101449.80
2022-11-30T07:13:20.505Z,101453.20
2022-11-30T07:15:54.796Z,101459.80
2022-11-30T07:18:32.082Z,101462.20
2022-11-30T07:21:08.437Z,101458.60
2022-11-30T07:23:59.925Z,101460.40
2022-11-30T07:26:34.139Z,101464.60
2022-11-30T07:29:08.571Z,101464.60
2022-11-30T07:31:42.516Z,101462.00
2022-11-30T07:34:19.319Z,101470.60
2022-11-30T07:36:53.317Z,101472.80
2022-11-30T07:39:27.567Z,101476.20
2022-11-30T07:42:02.076Z,101482.80
2022-11-30T07:44:35.925Z,101484.20
2022-11-30T07:47:09.802Z,101481.60
2022-11-30T07:49:43.662Z,101489.80
2022-11-30T07:52:17.701Z,101489.00
2022-11-30T07:54:54.163Z,101487.40
2022-11-30T07:57:30.254Z,101483.20
2022-11-30T08:00:04.734Z,101481.00
2022-11-30T08:02:45.987Z,101479.00
2022-11-30T08:05:20.517Z,101481.00
2022-11-30T08:07:57.388Z,101477.40
2022-11-30T08:10:31.818Z,101478.00
2022-11-30T08:13:06.754Z,101477.40
2022-11-30T08:15:41.138Z,101476.80
2022-11-30T08:18:14.985Z,101476.80
2022-11-30T08:20:50.222Z,101476.60
2022-11-30T08:23:24.662Z,101483.80
2022-11-30T08:26:03.149Z,101484.80
2022-11-30T08:28:37.432Z,101482.80
2022-11-30T08:31:14.316Z,101485.60
2022-11-30T08:33:49.127Z,101480.40
2022-11-30T08:36:26.331Z,101483.20
2022-11-30T08:39:04.540Z,101480.40
2022-11-30T08:41:39.848Z,101480.20
2022-11-30T08:44:14.128Z,101480.00
2022-11-30T08:46:52.337Z,101479.80
2022-11-30T08:49:27.189Z,101486.00
2022-11-30T08:52:16.957Z,101480.60
2022-11-30T08:54:52.760Z,101482.80
2022-11-30T08:57:27.231Z,101482.20
2022-11-30T09:00:01.674Z,101489.00
2022-11-30T09:02:35.469Z,101491.00
2022-11-30T09:05:11.283Z,101494.20
2022-11-30T09:07:45.284Z,101497.80
2022-11-30T09:10:20.482Z,101497.60
2022-11-30T09:12:54.746Z,101492.80
2022-11-30T09:15:28.915Z,101493.20
2022-11-30T09:18:02.536Z,101494.80
2022-11-30T09:20:37.436Z,101493.20
2022-11-30T09:23:11.186Z,101496.80
2022-11-30T09:25:45.088Z,101495.20
2022-11-30T09:28:18.931Z,101498.00
2022-11-30T09:30:52.666Z,101502.20
2022-11-30T09:33:27.036Z,101501.80
2022-11-30T09:36:03.768Z,101503.40
2022-11-30T09:38:38.200Z,101499.60
2022-11-30T09:41:47.614Z,101495.20
2022-11-30T09:44:32.322Z,101495.40
2022-11-30T09:47:18.876Z,101495.80
2022-11-30T09:49:53.346Z,101495.80
2022-11-30T09:52:37.365Z,101502.20
2022-11-30T09:55:18.391Z,101500.00
2022-11-30T09:57:56.897Z,101501.60
2022-11-30T10:00:32.347Z,101502.80
2022-11-30T10:03:09.346Z,101500.00
2022-11-30T10:05:52.803Z,101503.80
2022-11-30T10:08:53.030Z,101501.40
2022-11-30T10:11:58.100Z,101504.40
2022-11-30T10:15:08.656Z,101501.60
2022-11-30T10:17:56.496Z,101492.60
2022-11-30T10:20:56.227Z,101489.00
2022-11-30T10:24:07.753Z,101486.40
2022-11-30T10:26:50.432Z,101485.80
2022-11-30T10:29:36.610Z,101487.00
2022-11-30T10:32:23.646Z,101487.00
2022-11-30T10:35:05.902Z,101486.60
2022-11-30T10:37:42.784Z,101481.20
2022-11-30T10:40:32.199Z,101484.20
2022-11-30T10:43:20.811Z,101488.40
2022-11-30T10:45:55.956Z,101486.80
2022-11-30T10:48:40.728Z,101483.00
2022-11-30T10:51:17.853Z,101485.00
2022-11-30T10:53:52.303Z,101484.80
2022-11-30T10:56:26.717Z,101488.20
2022-11-30T10:59:10.651Z,101488.00
2022-11-30T11:01:45.997Z,101492.20
2022-11-30T11:04:24.690Z,101494.80
2022-11-30T11:07:08.283Z,101496.00
2022-11-30T11:09:47.202Z,101501.20
2022-11-30T11:12:26.338Z,101500.80
2022-11-30T11:15:19.174Z,101499.80
2022-11-30T11:17:54.805Z,101498.40
2022-11-30T11:20:42.841Z,101495.40
2022-11-30T11:23:31.712Z,101496.80
2022-11-30T11:26:07.368Z,101489.00
2022-11-30T11:28:47.671Z,101495.40
2022-11-30T11:31:37.648Z,101489.60
2022-11-30T11:34:33.652Z,101489.00
2022-11-30T11:37:19.196Z,101491.20
2022-11-30T11:40:15.275Z,101492.80
2022-11-30T11:42:53.336Z,101492.60
2022-11-30T11:45:34.100Z,101484.80
2022-11-30T11:48:31.688Z,101487.20
2022-11-30T11:51:09.457Z,101483.00
2022-11-30T11:53:53.817Z,101483.40
2022-11-30T11:56:32.885Z,101482.20
2022-11-30T11:59:28.037Z,101475.60
2022-11-30T12:02:20.636Z,101476.80
2022-11-30T12:05:00.429Z,101484.60
2022-11-30T12:07:42.449Z,101486.80
2022-11-30T12:13:38.586Z,101485.60
2022-11-30T12:16:40.828Z,101489.80
2022-11-30T12:19:22.974Z,101491.60
2022-11-30T12:22:09.664Z,101487.40
2022-11-30T12:25:09.559Z,101494.40
2022-11-30T12:27:54.087Z,101493.20
2022-11-30T12:30:46.121Z,101496.60
2022-11-30T12:33:32.092Z,101500.60
2022-11-30T12:36:20.320Z,101504.40
2022-11-30T12:39:07.269Z,101505.60
2022-11-30T12:41:49.241Z,101500.80
2022-11-30T12:44:48.950Z,101498.80
2022-11-30T12:47:45.363Z,101502.40
2022-11-30T12:50:38.843Z,101500.80
2022-11-30T12:53:27.451Z,101497.40
2022-11-30T12:56:18.335Z,101495.00
2022-11-30T12:59:02.927Z,101500.60
2022-11-30T13:01:57.882Z,101496.60
2022-11-30T13:04:39.408Z,101495.80
2022-11-30T13:07:25.295Z,101498.20
2022-11-30T13:10:06.162Z,101496.40
2022-11-30T13:12:46.660Z,101502.00
2022-11-30T13:15:29.662Z,101502.20
2022-11-30T13:18:05.226Z,101505.40
2022-11-30T13:20:48.848Z,101505.80
2022-11-30T13:23:38.874Z,101504.60
2022-11-30T13:26:28.586Z,101502.40
2022-11-30T13:29:47.455Z,101501.40
2022-11-30T13:32:56.098Z,101501.60
2022-11-30T13:35:55.539Z,101502.00
2022-11-30T13:38:36.674Z,101499.20
2022-11-30T13:41:12.965Z,101500.80
2022-11-30T13:43:50.644Z,101495.00
2022-11-30T13:46:27.256Z,101501.20
2022-11-30T13:49:23.681Z,101500.00
2022-11-30T13:52:21.678Z,101497.80
2022-11-30T13:54:55.847Z,101508.00
2022-11-30T13:58:07.045Z,101506.60
2022-11-30T14:04:45.291Z,101513.20
2022-11-30T14:07:41.244Z,101517.60
2022-11-30T14:10:34.824Z,101516.80
2022-11-30T14:13:30.726Z,101515.80
2022-11-30T14:16:06.261Z,101519.20
2022-11-30T14:18:50.286Z,101526.40
2022-11-30T14:21:33.215Z,101526.00
2022-11-30T14:24:19.138Z,101528.40
2022-11-30T14:26:55.214Z,101525.60
2022-11-30T14:29:34.081Z,101524.40
2022-11-30T14:32:18.452Z,101528.20
2022-11-30T14:35:01.708Z,101526.60
2022-11-30T14:37:46.073Z,101521.80
2022-11-30T14:40:24.657Z,101519.40
2022-11-30T14:43:01.484Z,101520.40
2022-11-30T14:45:38.389Z,101526.60
2022-11-30T14:48:17.858Z,101524.20
2022-11-30T14:50:57.222Z,101528.80
2022-11-30T14:53:53.362Z,101528.60
2022-11-30T14:56:37.023Z,101525.80
2022-11-30T14:59:30.842Z,101522.40
2022-11-30T15:02:20.839Z,101526.60
2022-11-30T15:04:57.953Z,101530.00
2022-11-30T15:07:32.448Z,101526.60
2022-11-30T15:10:15.725Z,101530.00
2022-11-30T15:12:50.214Z,101531.20
2022-11-30T15:15:27.939Z,101528.80
2022-11-30T15:18:15.238Z,101531.20
2022-11-30T15:20:57.046Z,101534.00
2022-11-30T15:23:30.892Z,101533.40
2022-11-30T15:26:14.983Z,101531.80
2022-11-30T15:28:57.671Z,101529.60
2022-11-30T15:31:41.442Z,101524.60
2022-11-30T15:34:31.053Z,101528.40
2022-11-30T15:37:05.113Z,101529.20
2022-11-30T15:39:41.264Z,101531.20
2022-11-30T15:42:30.193Z,101534.60
2022-11-30T15:45:20.778Z,101534.00
2022-11-30T15:47:59.021Z,101536.80
2022-11-30T15:50:45.315Z,101535.80
2022-11-30T15:53:51.527Z,101538.00
2022-11-30T15:56:30.523Z,101539.80
2022-11-30T15:59:29.018Z,101539.20
2022-11-30T16:02:20.423Z,101543.80
2022-11-30T16:05:28.539Z,101546.80
2022-11-30T16:08:04.089Z,101542.80
2022-11-30T16:10:41.737Z,101538.40
2022-11-30T16:13:20.339Z,101539.60
2022-11-30T16:15:55.377Z,101545.60
2022-11-30T16:18:31.899Z,101543.80
2022-11-30T16:21:06.370Z,101548.80
2022-11-30T16:23:40.499Z,101542.60
2022-11-30T16:29:12.088Z,101546.20
2022-11-30T16:31:46.837Z,101547.00
2022-11-30T16:34:21.816Z,101548.20
2022-11-30T16:36:55.717Z,101545.60
2022-11-30T16:39:30.238Z,101544.40
2022-11-30T16:42:07.569Z,101549.80
2022-11-30T16:44:41.582Z,101555.20
2022-11-30T16:47:15.342Z,101556.60
2022-11-30T16:49:49.898Z,101561.20
2022-11-30T16:52:24.226Z,101556.00
2022-11-30T16:54:58.525Z,101559.20
2022-11-30T16:57:32.274Z,101559.60
2022-11-30T17:00:08.161Z,101560.60
2022-11-30T17:02:47.043Z,101570.00
2022-11-30T17:05:22.306Z,101573.80
2022-11-30T17:07:57.129Z,101573.80
2022-11-30T17:10:31.120Z,101574.60
2022-11-30T17:13:05.137Z,101575.20
2022-11-30T17:15:39.225Z,101575.80
2022-11-30T17:18:13.476Z,101581.00
2022-11-30T17:20:47.896Z,101576.40
2022-11-30T17:23:21.962Z,101584.60
2022-11-30T17:25:56.468Z,101582.80
2022-11-30T17:28:30.896Z,101583.40
2022-11-30T17:31:05.540Z,101589.80
2022-11-30T17:33:44.945Z,101582.80
2022-11-30T17:36:23.436Z,101589.60
2022-11-30T17:38:57.732Z,101588.20
2022-11-30T17:41:31.841Z,101588.80
2022-11-30T17:44:07.277Z,101590.60
2022-11-30T17:46:46.719Z,101595.20
2022-11-30T17:49:22.701Z,101593.20
2022-11-30T17:51:57.091Z,101590.80
2022-11-30T17:54:31.417Z,101593.20
2022-11-30T17:57:05.431Z,101590.20
2022-11-30T17:59:39.543Z,101595.40
2022-11-30T18:02:16.070Z,101603.40
2022-11-30T18:04:50.504Z,101598.40
2022-11-30T18:07:24.511Z,101599.20
2022-11-30T18:09:59.194Z,101600.40
2022-11-30T18:12:33.523Z,101598.40
2022-11-30T18:15:09.369Z,101604.80
2022-11-30T18:29:50.245Z,101608.40
2022-11-30T18:32:24.074Z,101608.00
2022-11-30T18:34:58.293Z,101608.40
2022-11-30T18:37:33.640Z,101620.40
2022-11-30T18:40:10.055Z,101614.20
2022-11-30T18:42:44.425Z,101616.80
2022-11-30T18:45:19.247Z,101614.60
2022-11-30T18:47:53.364Z,101619.40
2022-11-30T18:50:28.319Z,101620.40
2022-11-30T18:53:02.123Z,101619.00
2022-11-30T18:55:37.707Z,101621.00
2022-11-30T18:58:12.052Z,101624.20
2022-11-30T19:00:46.314Z,101634.40
2022-11-30T19:03:20.114Z,101627.60
2022-11-30T19:05:54.568Z,101627.00
2022-11-30T19:08:28.934Z,101634.40
2022-11-30T19:11:08.628Z,101634.00
2022-11-30T19:13:43.846Z,101634.80
2022-11-30T19:16:20.021Z,101637.20
2022-11-30T19:18:54.600Z,101639.40
2022-11-30T19:21:29.254Z,101642.60
2022-11-30T19:24:03.780Z,101640.80
2022-11-30T19:26:40.191Z,101640.60
2022-11-30T19:29:15.722Z,101638.40
2022-11-30T19:31:49.470Z,101641.80
2022-11-30T19:34:23.381Z,101637.60
2022-11-30T19:36:57.573Z,101639.60
2022-11-30T19:39:31.822Z,101642.40
2022-11-30T19:42:07.191Z,101642.00
2022-11-30T19:44:41.486Z,101640.60
2022-11-30T19:47:15.531Z,101642.80
2022-11-30T19:49:50.038Z,101640.60
2022-11-30T19:52:24.116Z,101642.80
2022-11-30T19:54:58.639Z,101650.00
2022-11-30T19:57:32.470Z,101653.60
2022-11-30T20:00:08.348Z,101652.60
2022-11-30T20:02:50.273Z,101653.40
2022-11-30T20:05:25.781Z,101651.40
2022-11-30T20:08:00.240Z,101650.60
2022-11-30T20:10:34.710Z,101649.80
2022-11-30T20:13:08.901Z,101653.80
2022-11-30T20:15:44.184Z,101655.40
2022-11-30T20:18:18.351Z,101651.20
2022-11-30T20:20:52.200Z,101649.00
2022-11-30T20:23:26.729Z,101647.80
2022-11-30T20:26:01.130Z,101639.60
2022-11-30T20:28:34.969Z,101642.40
2022-11-30T20:31:10.349Z,101643.20
2022-11-30T20:33:45.993Z,101642.20
2022-11-30T20:36:22.173Z,101644.40
2022-11-30T20:38:56.173Z,101641.00
2022-11-30T20:41:30.579Z,101642.60
2022-11-30T20:44:04.676Z,101643.40
2022-11-30T20:46:39.906Z,101643.80
2022-11-30T20:49:21.316Z,101648.80
2022-11-30T20:51:55.169Z,101653.20
2022-11-30T20:54:30.541Z,101650.60
2022-11-30T20:57:04.876Z,101657.60
2022-11-30T20:59:39.631Z,101649.60
2022-11-30T21:02:15.221Z,101655.40
2022-11-30T21:04:49.665Z,101659.40
2022-11-30T21:07:23.773Z,101656.60
2022-11-30T21:09:58.845Z,101663.20
2022-11-30T21:12:33.007Z,101661.60
2022-11-30T21:15:11.304Z,101664.20
2022-11-30T21:17:45.162Z,101663.40
2022-11-30T21:20:20.317Z,101660.60
2022-11-30T21:22:55.107Z,101661.60
2022-11-30T21:25:29.177Z,101669.40
2022-11-30T21:28:03.458Z,101668.00
2022-11-30T21:30:39.371Z,101666.20
2022-11-30T21:33:14.519Z,101661.80
2022-11-30T21:35:48.936Z,101665.00
2022-11-30T21:38:23.017Z,101666.00
2022-11-30T21:41:01.604Z,101663.60
2022-11-30T21:43:38.962Z,101660.00
2022-11-30T21:46:17.316Z,101664.40
2022-11-30T21:48:53.657Z,101662.60
2022-11-30T21:51:29.368Z,101665.20
2022-11-30T21:54:07.623Z,101666.20
2022-11-30T21:56:44.937Z,101667.60
2022-11-30T21:59:20.188Z,101673.40
2022-11-30T22:01:54.488Z,101672.40
2022-11-30T22:04:28.912Z,101668.20
2022-11-30T22:07:03.184Z,101666.00
2022-11-30T22:09:37.386Z,101670.80
2022-11-30T22:12:12.011Z,101672.60
2022-11-30T22:14:46.076Z,101671.60
2022-11-30T22:17:20.193Z,101672.20
2022-11-30T22:19:53.969Z,101669.80
2022-11-30T22:22:31.073Z,101665.80
2022-11-30T22:25:05.500Z,101665.60
2022-11-30T22:27:42.205Z,101669.20
2022-11-30T22:30:18.540Z,101662.40
2022-11-30T22:32:53.101Z,101663.40
2022-11-30T22:35:27.262Z,101660.20
2022-11-30T22:38:01.598Z,101666.20
2022-11-30T22:40:35.702Z,101667.80
2022-11-30T22:43:09.854Z,101668.80
2022-11-30T22:45:43.737Z,101667.40
2022-11-30T22:48:17.660Z,101662.00
2022-11-30T22:50:53.284Z,101669.00
2022-11-30T22:53:27.397Z,101665.60
2022-11-30T22:56:07.087Z,101662.60
2022-11-30T22:58:42.124Z,101665.00
2022-11-30T23:01:20.033Z,101662.60
2022-11-30T23:03:56.820Z,101661.20
2022-11-30T23:06:30.791Z,101656.20
2022-11-30T23:09:07.006Z,101657.40
2022-11-30T23:11:41.638Z,101658.20
2022-11-30T23:14:16.636Z,101650.80
2022-11-30T23:16:51.180Z,101652.00
2022-11-30T23:19:24.983Z,101648.20
2022-11-30T23:21:58.852Z,101653.40
2022-11-30T23:24:33.258Z,101648.40
2022-11-30T23:27:07.363Z,101656.60
2022-11-30T23:29:41.720Z,101657.60
2022-11-30T23:32:16.753Z,101652.80
2022-11-30T23:34:51.038Z,101651.80
2022-11-30T23:37:25.080Z,101650.80
2022-11-30T23:39:58.758Z,101648.60
2022-11-30T23:42:32.607Z,101647.00
2022-11-30T23:45:07.497Z,101657.40
2022-11-30T23:47:41.474Z,101657.40
2022-11-30T23:50:16.680Z,101651.00
2022-11-30T23:52:50.754Z,101651.20
2022-11-30T23:55:24.491Z,101643.80
2022-11-30T23:57:58.445Z,101642.00
